Time;durP1;ratioP1;P1;durP2;ratioP2;P2;SDS_P1;SDS_P2;PMS_P1;PMS_P2;Temp;Humidity;BMP_temperature;BMP_pressure;BME280_temperature;BME280_humidity;BME280_pressure;Samples;Min_cycle;Max_cycle;Signal;HPM_P1;HPM_P2
2024/01/24 00:00:57;;;;;;;76.30;33.20;;;;;;;7.20;56.76;100861.65;108209;1253;72641;-68
2024/01/24 00:03:25;;;;;;;68.70;30.90;;;;;;;7.36;56.43;100860.76;108208;1252;69495;-67
2024/01/24 00:05:52;;;;;;;65.50;29.60;;;;;;;7.37;56.33;100857.95;108203;1253;71956;-64
2024/01/24 00:08:20;;;;;;;76.10;32.40;;;;;;;7.31;56.52;100862.22;108106;1254;60969;-66
2024/01/24 00:10:47;;;;;;;69.80;30.80;;;;;;;7.44;56.27;100858.04;108227;1256;60369;-63
2024/01/24 00:13:15;;;;;;;77.60;32.50;;;;;;;7.33;56.36;100853.45;108144;1253;73849;-67
2024/01/24 00:15:42;;;;;;;70.90;30.70;;;;;;;7.21;56.79;100849.76;108304;1254;68709;-66
2024/01/24 00:18:10;;;;;;;64.40;30.60;;;;;;;7.13;57.01;100848.10;108186;1254;71242;-67
2024/01/24 00:20:37;;;;;;;79.00;33.90;;;;;;;7.26;56.86;100849.00;108136;1253;60456;-66
2024/01/24 00:23:05;;;;;;;76.30;33.70;;;;;;;7.30;56.74;100846.52;108193;1257;60415;-67
2024/01/24 00:25:32;;;;;;;68.10;32.40;;;;;;;7.35;56.65;100843.30;108174;1253;73921;-67
2024/01/24 00:28:00;;;;;;;78.80;34.10;;;;;;;7.24;56.92;100839.77;108172;1254;70280;-65
2024/01/24 00:30:27;;;;;;;75.80;33.00;;;;;;;7.20;57.00;100842.09;108218;1253;72813;-66
2024/01/24 00:32:55;;;;;;;70.00;31.70;;;;;;;7.12;57.16;100837.98;108182;1254;59554;-67
2024/01/24 00:35:22;;;;;;;73.50;34.70;;;;;;;7.13;57.28;100836.92;108064;1253;60322;-67
2024/01/24 00:37:50;;;;;;;71.50;32.50;;;;;;;7.22;56.90;100841.02;108164;1254;72783;-67
2024/01/24 00:40:17;;;;;;;74.80;33.40;;;;;;;7.40;56.62;100842.20;108202;1254;70247;-67
2024/01/24 00:42:45;;;;;;;69.00;33.30;;;;;;;7.40;56.49;100839.23;108069;1254;72007;-67
2024/01/24 00:45:13;;;;;;;72.20;32.20;;;;;;;7.34;56.65;100838.77;108167;1254;59703;-66
2024/01/24 00:47:41;;;;;;;71.60;32.60;;;;;;;7.40;56.58;100840.45;108203;1253;60332;-67
2024/01/24 00:50:09;;;;;;;64.90;30.60;;;;;;;7.40;56.51;100841.85;108246;1253;73866;-66
2024/01/24 00:52:36;;;;;;;68.30;32.60;;;;;;;7.40;56.76;100835.56;108011;1254;69521;-66
2024/01/24 00:55:04;;;;;;;76.20;32.80;;;;;;;7.48;56.34;100837.73;108105;1257;70426;-65
2024/01/24 00:57:31;;;;;;;70.10;33.70;;;;;;;7.36;56.53;100831.05;108261;1253;60509;-68
2024/01/24 00:59:59;;;;;;;71.20;34.00;;;;;;;7.49;56.43;100828.27;108167;1253;60310;-67
2024/01/24 01:02:28;;;;;;;71.30;32.60;;;;;;;7.46;56.49;100833.39;108135;1252;73981;-67
2024/01/24 01:04:56;;;;;;;70.80;32.60;;;;;;;7.56;56.29;100834.65;108197;1254;68721;-67
2024/01/24 01:07:23;;;;;;;72.00;31.70;;;;;;;7.61;56.06;100833.19;108043;1254;71850;-67
2024/01/24 01:09:51;;;;;;;62.90;29.80;;;;;;;7.52;56.27;100835.58;108096;1253;60296;-66
2024/01/24 01:12:18;;;;;;;74.20;34.30;;;;;;;7.33;56.70;100823.94;108183;1252;60328;-68
2024/01/24 01:14:46;;;;;;;75.70;33.30;;;;;;;7.36;56.58;100811.33;108143;1254;72873;-66
2024/01/24 01:17:13;;;;;;;64.30;31.50;;;;;;;7.47;56.53;100810.31;108073;1253;68752;-67
2024/01/24 01:19:41;;;;;;;67.90;33.60;;;;;;;7.46;56.39;100814.17;108077;1254;72658;-66
2024/01/24 01:22:08;;;;;;;73.00;33.90;;;;;;;7.23;56.90;100813.23;108061;1253;60806;-66
2024/01/24 01:24:36;;;;;;;73.70;33.80;;;;;;;7.27;57.03;100813.17;108224;1253;60331;-65
2024/01/24 01:27:04;;;;;;;80.60;36.20;;;;;;;7.55;56.33;100809.14;108243;1253;73823;-67
2024/01/24 01:29:31;;;;;;;67.40;32.00;;;;;;;7.67;55.97;100809.50;108210;1252;69911;-66
2024/01/24 01:31:59;;;;;;;84.80;35.90;;;;;;;7.69;55.90;100815.06;108197;1254;73193;-67
2024/01/24 01:34:26;;;;;;;69.10;33.40;;;;;;;7.73;55.86;100811.17;108099;1254;60422;-67
2024/01/24 01:36:54;;;;;;;75.80;34.00;;;;;;;7.64;55.99;100808.84;108090;1253;60340;-67
2024/01/24 01:39:22;;;;;;;76.80;33.30;;;;;;;7.61;56.09;100811.67;108059;1257;73893;-67
2024/01/24 01:41:49;;;;;;;69.30;31.50;;;;;;;7.60;56.23;100809.42;108066;1253;69287;-65
2024/01/24 01:44:17;;;;;;;68.70;34.40;;;;;;;7.57;56.23;100811.92;108155;1254;72625;-66
2024/01/24 01:46:45;;;;;;;76.20;35.10;;;;;;;7.68;56.18;100812.11;108065;1255;60903;-67
2024/01/24 01:49:12;;;;;;;73.30;34.50;;;;;;;7.59;56.32;100802.98;108071;1253;60181;-65
2024/01/24 01:51:41;;;;;;;81.70;36.30;;;;;;;7.57;56.33;100807.88;108079;1254;73760;-66
2024/01/24 01:54:09;;;;;;;80.80;36.00;;;;;;;7.68;56.00;100807.58;108106;1254;70594;-67
2024/01/24 01:56:36;;;;;;;78.70;37.40;;;;;;;7.71;56.02;100809.79;108097;1254;72654;-67
2024/01/24 01:59:05;;;;;;;73.80;34.20;;;;;;;7.69;56.07;100803.36;108181;1253;61324;-68
2024/01/24 02:01:33;;;;;;;77.20;33.40;;;;;;;7.60;56.35;100799.82;108114;1254;60283;-67
2024/01/24 02:04:01;;;;;;;81.00;38.80;;;;;;;7.62;56.31;100798.21;108147;1253;72535;-66
2024/01/24 02:06:31;;;;;;;74.10;35.40;;;;;;;7.62;56.11;100798.04;108168;1253;68628;-67
2024/01/24 02:08:59;;;;;;;80.80;34.70;;;;;;;7.51;56.38;100801.16;108143;1254;70766;-66
2024/01/24 02:11:26;;;;;;;74.30;36.40;;;;;;;7.52;56.26;100802.20;108213;1253;60903;-65
2024/01/24 02:13:58;;;;;;;67.90;33.30;;;;;;;7.65;55.97;100796.95;108111;1254;60213;-67
2024/01/24 02:16:26;;;;;;;73.20;34.90;;;;;;;7.70;55.98;100793.39;108180;1253;73425;-67
2024/01/24 02:18:54;;;;;;;68.60;34.20;;;;;;;7.72;55.83;100787.58;108050;1253;68703;-67
2024/01/24 02:21:21;;;;;;;77.90;35.60;;;;;;;7.65;56.02;100787.16;108059;1254;71405;-67
2024/01/24 02:23:49;;;;;;;71.30;34.50;;;;;;;7.57;56.15;100787.11;108034;1254;61327;-66
2024/01/24 02:26:16;;;;;;;74.70;34.50;;;;;;;7.59;56.00;100788.64;108097;1253;60532;-68
2024/01/24 02:28:44;;;;;;;79.80;37.20;;;;;;;7.72;55.90;100788.81;108125;1253;73857;-67
2024/01/24 02:31:11;;;;;;;73.60;34.40;;;;;;;7.84;55.66;100786.02;108086;1259;69947;-68
2024/01/24 02:33:39;;;;;;;77.90;35.60;;;;;;;7.80;55.69;100782.21;108041;1253;71420;-67
2024/01/24 02:36:06;;;;;;;80.10;37.60;;;;;;;7.91;55.47;100781.00;108151;1253;60404;-67
2024/01/24 02:38:34;;;;;;;74.40;34.50;;;;;;;7.88;55.44;100783.16;108079;1252;60270;-67
2024/01/24 02:41:01;;;;;;;75.30;34.60;;;;;;;7.92;55.39;100788.34;108168;1253;73820;-66
2024/01/24 02:43:29;;;;;;;74.50;34.60;;;;;;;7.94;55.33;100790.04;108027;1253;70168;-67
2024/01/24 02:45:56;;;;;;;65.60;31.60;;;;;;;7.88;55.49;100789.80;108071;1254;70773;-67
2024/01/24 02:48:24;;;;;;;75.30;34.50;;;;;;;7.89;55.42;100789.24;108113;1254;60583;-64
2024/01/24 02:50:52;;;;;;;73.70;34.10;;;;;;;7.93;55.31;100792.35;108109;1253;58978;-65
2024/01/24 02:53:19;;;;;;;66.40;30.40;;;;;;;7.70;55.79;100789.71;108094;1254;73870;-66
2024/01/24 02:55:47;;;;;;;71.90;34.80;;;;;;;7.78;55.81;100788.55;108069;1254;70121;-66
2024/01/24 02:58:14;;;;;;;71.80;31.70;;;;;;;7.72;55.79;100787.41;108188;1257;70745;-67
2024/01/24 03:00:42;;;;;;;74.80;33.80;;;;;;;7.52;56.28;100788.38;108119;1254;60915;-68
2024/01/24 03:03:10;;;;;;;72.40;34.20;;;;;;;7.56;56.18;100786.08;108228;1254;60925;-67
2024/01/24 03:05:37;;;;;;;65.20;32.80;;;;;;;7.50;56.45;100793.14;108154;1253;74063;-67
2024/01/24 03:08:05;;;;;;;80.10;36.20;;;;;;;7.61;56.09;100788.10;108187;1253;68706;-66
2024/01/24 03:10:32;;;;;;;64.10;30.80;;;;;;;7.74;55.81;100774.45;108134;1254;72875;-67
2024/01/24 03:13:00;;;;;;;70.00;33.60;;;;;;;7.73;55.74;100769.04;108084;1257;60335;-67
2024/01/24 03:15:27;;;;;;;77.50;36.60;;;;;;;7.73;55.82;100766.59;108213;1256;58959;-67
2024/01/24 03:17:55;;;;;;;70.70;34.20;;;;;;;7.79;55.67;100765.63;108197;1256;73806;-67
2024/01/24 03:20:22;;;;;;;69.20;35.30;;;;;;;7.88;55.41;100762.70;108296;1253;69243;-66
2024/01/24 03:22:50;;;;;;;70.60;35.10;;;;;;;7.89;55.54;100764.61;108137;1254;71558;-67
2024/01/24 03:25:18;;;;;;;72.60;34.10;;;;;;;7.70;55.83;100761.05;108147;1252;60917;-67
2024/01/24 03:27:46;;;;;;;73.80;37.10;;;;;;;7.82;55.66;100763.85;108177;1253;58655;-67
2024/01/24 03:33:05;;;;;;;76.30;38.30;;;;;;;4.90;64.64;100779.36;105004;1290;600851;-67
2024/01/24 03:35:32;;;;;;;81.70;39.80;;;;;;;5.98;61.28;100788.30;107331;1269;59632;-67
2024/01/24 03:38:00;;;;;;;75.90;35.40;;;;;;;6.43;60.11;100785.66;107299;1269;59891;-67
2024/01/24 03:40:28;;;;;;;85.30;39.80;;;;;;;6.48;59.86;100778.63;107278;1264;71927;-67
2024/01/24 03:42:56;;;;;;;83.40;39.40;;;;;;;6.40;60.04;100778.71;107331;1264;69171;-67
2024/01/24 03:45:24;;;;;;;80.00;37.70;;;;;;;6.33;60.36;100779.47;107289;1264;71681;-67
2024/01/24 03:47:51;;;;;;;90.90;40.50;;;;;;;6.37;60.30;100775.94;107243;1264;147556;-66
2024/01/24 03:50:19;;;;;;;80.20;36.90;;;;;;;6.36;60.11;100773.86;108098;1254;59223;-67
2024/01/24 03:52:47;;;;;;;83.90;39.30;;;;;;;6.23;60.57;100770.30;108047;1254;71779;-66
2024/01/24 03:55:14;;;;;;;91.10;39.50;;;;;;;6.21;60.72;100768.08;108117;1254;70234;-66
2024/01/24 03:57:42;;;;;;;79.50;33.90;;;;;;;6.29;60.60;100763.30;108128;1254;72667;-67
2024/01/24 04:00:10;;;;;;;98.10;42.10;;;;;;;6.23;60.56;100760.89;107928;1253;60845;-66
2024/01/24 04:02:40;;;;;;;87.90;39.90;;;;;;;6.35;60.52;100758.00;108030;1254;60045;-67
2024/01/24 04:05:08;;;;;;;81.40;37.60;;;;;;;6.33;60.63;100753.14;108015;1254;73012;-67
2024/01/24 04:07:36;;;;;;;89.50;39.40;;;;;;;6.49;60.01;100748.43;108069;1254;69304;-66
2024/01/24 04:10:05;;;;;;;77.70;36.40;;;;;;;6.41;60.11;100745.90;108083;1254;72555;-67
2024/01/24 04:12:32;;;;;;;84.80;40.70;;;;;;;6.42;60.16;100745.89;108066;1253;59576;-66
2024/01/24 04:15:00;;;;;;;83.00;37.30;;;;;;;6.42;60.27;100747.11;108117;1254;59451;-66
2024/01/24 04:17:27;;;;;;;78.70;36.10;;;;;;;6.13;61.07;100738.67;108079;1253;73309;-66
2024/01/24 04:19:55;;;;;;;91.30;42.60;;;;;;;6.19;61.09;100740.37;108121;1254;68973;-68
2024/01/24 04:22:23;;;;;;;76.20;35.80;;;;;;;6.22;60.81;100733.88;108125;1256;72630;-67
2024/01/24 04:24:50;;;;;;;94.30;42.00;;;;;;;6.14;61.26;100737.44;108097;1254;60861;-67
2024/01/24 04:27:18;;;;;;;90.30;42.20;;;;;;;6.30;60.81;100741.65;108126;1260;60434;-66
2024/01/24 04:29:45;;;;;;;83.40;40.10;;;;;;;6.48;60.40;100739.20;108124;1254;72998;-66
2024/01/24 04:32:13;;;;;;;93.60;40.30;;;;;;;6.59;60.07;100741.52;108009;1254;68763;-67
2024/01/24 04:34:40;;;;;;;78.50;37.40;;;;;;;6.69;59.83;100743.68;107968;1254;71387;-67
2024/01/24 04:37:08;;;;;;;84.60;37.30;;;;;;;6.65;60.09;100751.06;107963;1257;61092;-66
2024/01/24 04:39:36;;;;;;;82.80;37.10;;;;;;;6.64;60.18;100752.81;108073;1254;60644;-67
2024/01/24 04:42:04;;;;;;;79.90;38.90;;;;;;;6.66;60.14;100751.92;107970;1254;71018;-67
2024/01/24 04:44:42;;;;;;;84.50;38.40;;;;;;;6.58;60.35;100755.16;107992;1254;68976;-66
2024/01/24 04:47:13;;;;;;;87.20;39.00;;;;;;;6.67;60.13;100749.65;108011;1256;73465;-67
2024/01/24 04:49:41;;;;;;;87.70;38.80;;;;;;;6.80;59.89;100738.84;107962;1254;59948;-67
2024/01/24 04:52:13;;;;;;;91.90;41.30;;;;;;;6.80;59.72;100739.04;108055;1254;60090;-67
2024/01/24 04:54:42;;;;;;;89.50;38.80;;;;;;;6.69;60.01;100737.75;108055;1254;73584;-67
2024/01/24 04:57:09;;;;;;;84.00;37.00;;;;;;;6.46;60.62;100736.24;107946;1254;68904;-67
2024/01/24 04:59:37;;;;;;;94.30;40.50;;;;;;;6.50;60.56;100736.21;107930;1254;72664;-67
2024/01/24 05:02:19;;;;;;;87.20;36.80;;;;;;;6.43;60.68;100739.61;107832;1261;59645;-68
2024/01/24 05:04:48;;;;;;;91.40;39.60;;;;;;;6.49;60.57;100737.27;107902;1254;59521;-69
2024/01/24 05:07:16;;;;;;;94.40;41.50;;;;;;;6.40;60.72;100746.62;107931;1254;71140;-66
2024/01/24 05:09:43;;;;;;;93.30;40.30;;;;;;;6.24;61.15;100747.81;107943;1260;68727;-68
2024/01/24 05:12:11;;;;;;;106.00;43.70;;;;;;;6.36;60.91;100745.95;107915;1256;71999;-67
2024/01/24 05:14:39;;;;;;;101.80;44.20;;;;;;;6.31;61.04;100743.21;107954;1256;59633;-67
2024/01/24 05:17:06;;;;;;;98.10;42.40;;;;;;;6.26;61.24;100747.27;108014;1254;60036;-67
2024/01/24 05:19:34;;;;;;;99.70;40.80;;;;;;;6.33;61.17;100754.35;108103;1254;72959;-67
2024/01/24 05:22:03;;;;;;;93.90;40.80;;;;;;;6.16;61.59;100755.90;107928;1260;68892;-65
2024/01/24 05:24:30;;;;;;;89.20;41.60;;;;;;;6.25;61.55;100762.28;107942;1254;72628;-67
2024/01/24 05:26:58;;;;;;;106.90;43.00;;;;;;;6.39;61.21;100756.56;108028;1254;60864;-67
2024/01/24 05:29:25;;;;;;;94.90;41.20;;;;;;;6.43;61.10;100760.02;108024;1254;59290;-67
2024/01/24 05:31:53;;;;;;;107.70;45.20;;;;;;;6.34;61.36;100756.09;107907;1257;70931;-66
2024/01/24 05:34:20;;;;;;;106.00;45.50;;;;;;;6.42;61.27;100753.39;107916;1256;70126;-65
2024/01/24 05:36:48;;;;;;;100.20;45.60;;;;;;;6.61;60.79;100746.05;107866;1256;71447;-66
2024/01/24 05:39:15;;;;;;;112.20;46.80;;;;;;;6.58;60.72;100743.11;107873;1255;59640;-66
2024/01/24 05:41:43;;;;;;;89.40;41.70;;;;;;;6.48;60.83;100749.48;107987;1257;59029;-67
2024/01/24 05:44:11;;;;;;;103.20;44.30;;;;;;;6.38;61.10;100745.94;107859;1255;73071;-66
2024/01/24 05:46:38;;;;;;;98.40;42.20;;;;;;;6.40;61.22;100733.54;107906;1256;69292;-67
2024/01/24 05:49:06;;;;;;;94.90;41.80;;;;;;;6.48;60.93;100735.02;107883;1255;71841;-65
2024/01/24 05:51:33;;;;;;;104.30;46.20;;;;;;;6.57;60.80;100726.56;108064;1256;59737;-66
2024/01/24 05:54:01;;;;;;;107.30;45.50;;;;;;;6.57;60.78;100722.70;107881;1257;62109;-66
2024/01/24 05:56:28;;;;;;;92.50;41.20;;;;;;;6.57;60.88;100741.38;107883;1257;72217;-66
2024/01/24 05:58:56;;;;;;;90.90;40.90;;;;;;;6.54;60.96;100737.56;107862;1257;69126;-66
2024/01/24 06:01:23;;;;;;;87.30;40.80;;;;;;;6.64;60.63;100746.36;107831;1260;72691;-66
2024/01/24 06:03:51;;;;;;;101.50;44.80;;;;;;;6.70;60.62;100751.53;107834;1260;60184;-67
2024/01/24 06:06:18;;;;;;;93.30;41.30;;;;;;;6.62;60.91;100743.59;107862;1257;60039;-67
2024/01/24 06:08:46;;;;;;;102.60;43.70;;;;;;;6.68;60.81;100741.08;107931;1256;72133;-67
2024/01/24 06:11:14;;;;;;;101.40;45.00;;;;;;;6.72;60.60;100738.27;107878;1256;70434;-66
2024/01/24 06:13:42;;;;;;;96.80;40.10;;;;;;;6.72;60.72;100732.67;107885;1260;72741;-66
2024/01/24 06:16:10;;;;;;;102.60;43.20;;;;;;;6.65;60.84;100739.54;107853;1256;60826;-67
2024/01/24 06:18:38;;;;;;;102.40;44.20;;;;;;;6.67;60.79;100748.07;107882;1255;59973;-67
2024/01/24 06:21:07;;;;;;;92.30;41.00;;;;;;;6.65;61.06;100752.63;107881;1257;72166;-67
2024/01/24 06:23:35;;;;;;;90.30;39.60;;;;;;;6.46;61.27;100754.76;107880;1257;70283;-67
2024/01/24 06:26:02;;;;;;;85.40;35.60;;;;;;;6.19;61.81;100759.88;107909;1257;72695;-67
2024/01/24 06:28:30;;;;;;;82.20;37.30;;;;;;;6.23;61.58;100765.44;107868;1260;59584;-67
2024/01/24 06:30:57;;;;;;;87.80;37.90;;;;;;;6.36;61.25;100763.40;107903;1257;59512;-67
2024/01/24 06:33:26;;;;;;;75.60;32.90;;;;;;;6.55;60.67;100758.49;107924;1255;73063;-67
2024/01/24 06:35:53;;;;;;;81.90;35.70;;;;;;;6.51;60.71;100753.64;107868;1257;70121;-67
2024/01/24 06:38:22;;;;;;;76.80;34.60;;;;;;;6.51;60.72;100748.59;107915;1257;72710;-67
2024/01/24 06:40:49;;;;;;;80.30;35.90;;;;;;;6.46;60.86;100749.87;107947;1257;59730;-67
2024/01/24 06:43:18;;;;;;;86.50;39.40;;;;;;;6.51;60.43;100747.90;107863;1257;60043;-67
2024/01/24 06:45:47;;;;;;;77.60;35.10;;;;;;;6.59;60.50;100743.45;108006;1257;72988;-66
2024/01/24 06:48:14;;;;;;;83.70;37.70;;;;;;;6.67;60.36;100738.66;107927;1257;69176;-69
2024/01/24 06:50:42;;;;;;;84.50;36.00;;;;;;;6.67;60.42;100739.00;107881;1257;71818;-69
2024/01/24 06:53:14;;;;;;;84.00;37.70;;;;;;;6.63;60.40;100733.80;107877;1257;60822;-69
2024/01/24 06:55:41;;;;;;;93.80;38.90;;;;;;;6.66;60.29;100730.29;107897;1256;60094;-68
2024/01/24 06:58:09;;;;;;;79.30;35.00;;;;;;;6.74;60.21;100724.42;107878;1255;73082;-67
2024/01/24 07:00:37;;;;;;;81.00;36.30;;;;;;;6.68;60.38;100725.56;107938;1260;70092;-66
2024/01/24 07:03:04;;;;;;;92.00;39.40;;;;;;;6.65;60.49;100734.48;107932;1257;71392;-67
2024/01/24 07:05:32;;;;;;;76.10;34.60;;;;;;;6.69;60.67;100728.86;107878;1257;63088;-67
2024/01/24 07:07:59;;;;;;;86.80;37.50;;;;;;;6.71;60.44;100728.31;107960;1255;60657;-66
2024/01/24 07:10:27;;;;;;;87.90;37.50;;;;;;;6.77;60.39;100729.81;107975;1257;73246;-66
2024/01/24 07:12:56;;;;;;;82.40;36.90;;;;;;;6.61;60.86;100726.34;108041;1257;70613;-67
2024/01/24 07:15:24;;;;;;;94.30;37.40;;;;;;;6.80;60.39;100726.98;108116;1254;71397;-67
2024/01/24 07:17:52;;;;;;;84.90;35.80;;;;;;;6.80;60.31;100718.43;108053;1253;59666;-67
2024/01/24 07:20:19;;;;;;;94.00;37.80;;;;;;;6.76;60.47;100721.62;108153;1253;60075;-67
2024/01/24 07:22:47;;;;;;;80.90;36.20;;;;;;;6.81;60.39;100726.97;108125;1254;72063;-67
2024/01/24 07:25:15;;;;;;;79.60;34.60;;;;;;;6.83;60.47;100727.99;108069;1254;69993;-67
2024/01/24 07:27:44;;;;;;;91.00;38.60;;;;;;;6.80;60.40;100722.45;108076;1254;71192;-67
2024/01/24 07:30:13;;;;;;;80.10;35.20;;;;;;;6.83;60.42;100721.70;108058;1254;59669;-67
2024/01/24 07:32:42;;;;;;;92.90;37.10;;;;;;;6.72;60.77;100715.73;108096;1253;59615;-67
2024/01/24 07:35:10;;;;;;;91.90;37.30;;;;;;;6.85;60.35;100722.20;108206;1254;75283;-67
2024/01/24 07:37:37;;;;;;;82.90;34.30;;;;;;;6.81;60.53;100722.44;108183;1253;68953;-68
2024/01/24 07:40:05;;;;;;;94.40;37.30;;;;;;;6.68;60.91;100721.02;108165;1254;71094;-68
2024/01/24 07:42:33;;;;;;;85.30;36.10;;;;;;;6.82;60.61;100723.81;108104;1254;60289;-67
2024/01/24 07:45:00;;;;;;;86.00;36.50;;;;;;;7.02;60.14;100726.72;108126;1257;60293;-67
2024/01/24 07:47:29;;;;;;;83.10;35.30;;;;;;;7.08;60.00;100719.81;108253;1254;72677;-67
2024/01/24 07:49:57;;;;;;;84.70;37.20;;;;;;;6.82;60.71;100723.29;108167;1258;68922;-67
2024/01/24 07:52:24;;;;;;;80.80;35.60;;;;;;;7.02;60.12;100719.38;108156;1254;71167;-67
2024/01/24 07:55:07;;;;;;;87.50;36.30;;;;;;;7.11;59.89;100712.80;108074;1254;59630;-67
2024/01/24 07:57:35;;;;;;;82.40;37.00;;;;;;;6.92;60.46;100705.36;108056;1254;60503;-67
2024/01/24 08:00:06;;;;;;;89.80;38.30;;;;;;;6.75;60.94;100702.60;108044;1254;73087;-67
2024/01/24 08:02:34;;;;;;;104.50;39.50;;;;;;;6.90;60.77;100695.96;108118;1254;67942;-67
2024/01/24 08:05:02;;;;;;;88.30;37.70;;;;;;;6.95;60.66;100690.30;108051;1254;71681;-66
2024/01/24 08:07:33;;;;;;;107.80;43.60;;;;;;;6.92;60.78;100683.36;108095;1258;60985;-66
2024/01/24 08:10:00;;;;;;;88.30;40.00;;;;;;;7.05;60.64;100679.36;108087;1254;60177;-67
2024/01/24 08:12:28;;;;;;;103.00;42.60;;;;;;;7.23;60.26;100679.10;108170;1254;73937;-67
2024/01/24 08:14:55;;;;;;;108.60;42.40;;;;;;;7.30;60.00;100676.35;108042;1254;70285;-67
2024/01/24 08:17:23;;;;;;;91.00;38.80;;;;;;;7.17;60.21;100668.00;108081;1254;71773;-66
2024/01/24 08:19:51;;;;;;;95.70;43.10;;;;;;;7.17;60.21;100667.14;108027;1254;60258;-67
2024/01/24 08:22:18;;;;;;;94.50;40.20;;;;;;;7.37;59.73;100660.37;108179;1258;60514;-67
2024/01/24 08:24:46;;;;;;;91.80;42.50;;;;;;;7.45;59.75;100656.42;108123;1254;73861;-68
2024/01/24 08:27:13;;;;;;;99.00;41.60;;;;;;;7.57;59.60;100653.77;108060;1253;70789;-68
2024/01/24 08:29:41;;;;;;;86.70;37.80;;;;;;;7.56;59.46;100652.02;108050;1253;72458;-67
2024/01/24 08:32:08;;;;;;;91.40;39.80;;;;;;;7.68;59.11;100649.92;108061;1254;60434;-67
2024/01/24 08:34:36;;;;;;;87.30;38.50;;;;;;;7.82;58.82;100646.89;108078;1255;59438;-67
2024/01/24 08:37:05;;;;;;;86.80;35.10;;;;;;;7.71;58.88;100644.45;108061;1254;75967;-67
2024/01/24 08:39:33;;;;;;;78.80;33.10;;;;;;;7.66;58.83;100642.61;108053;1257;70023;-67
2024/01/24 08:42:04;;;;;;;80.10;36.70;;;;;;;7.60;58.93;100641.84;108084;1254;71569;-67
2024/01/24 08:44:32;;;;;;;81.20;37.90;;;;;;;7.55;58.91;100635.63;108048;1254;60501;-67
2024/01/24 08:46:59;;;;;;;84.80;36.30;;;;;;;7.42;59.33;100629.73;108057;1255;60411;-67
2024/01/24 08:49:26;;;;;;;86.90;37.00;;;;;;;7.31;59.78;100628.69;108032;1254;72631;-67
2024/01/24 08:51:56;;;;;;;101.30;42.40;;;;;;;7.33;59.72;100622.88;108159;1254;70816;-67
2024/01/24 08:54:24;;;;;;;91.50;39.30;;;;;;;7.47;59.53;100620.39;108057;1254;72976;-67
2024/01/24 08:56:53;;;;;;;84.60;34.00;;;;;;;7.47;59.59;100617.59;108141;1254;60584;-67
2024/01/24 08:59:21;;;;;;;90.80;39.20;;;;;;;7.48;59.50;100608.84;108130;1254;60392;-67
2024/01/24 09:01:49;;;;;;;95.80;37.30;;;;;;;7.57;59.41;100601.17;108030;1254;74123;-67
2024/01/24 09:04:17;;;;;;;90.80;41.00;;;;;;;7.47;59.71;100591.38;108101;1257;69686;-67
2024/01/24 09:06:45;;;;;;;93.70;41.40;;;;;;;7.50;59.68;100588.36;107975;1255;72959;-67
2024/01/24 09:09:13;;;;;;;88.80;39.70;;;;;;;7.53;59.63;100578.36;108136;1253;60418;-67
2024/01/24 09:11:42;;;;;;;94.30;39.40;;;;;;;7.65;59.63;100576.04;108146;1254;60337;-67
2024/01/24 09:14:24;;;;;;;93.40;41.40;;;;;;;7.65;59.60;100566.08;108095;1254;72970;-68
2024/01/24 09:16:52;;;;;;;94.40;41.30;;;;;;;7.83;59.06;100557.52;108090;1254;70822;-67
2024/01/24 09:19:20;;;;;;;97.70;42.20;;;;;;;8.04;58.62;100548.05;108112;1257;72890;-67
2024/01/24 09:21:48;;;;;;;88.20;37.90;;;;;;;8.16;58.31;100541.67;108080;1253;60962;-66
2024/01/24 09:24:16;;;;;;;93.70;41.80;;;;;;;8.26;58.24;100532.55;108074;1254;60254;-68
2024/01/24 09:26:44;;;;;;;96.60;40.40;;;;;;;8.31;58.03;100528.08;108090;1258;74208;-67
2024/01/24 09:29:12;;;;;;;82.60;36.40;;;;;;;8.11;58.14;100523.05;108065;1254;69045;-67
2024/01/24 09:31:46;;;;;;;80.10;36.10;;;;;;;8.25;57.83;100520.31;108073;1253;72699;-67
2024/01/24 09:34:15;;;;;;;89.40;36.20;;;;;;;8.23;57.78;100510.76;108047;1254;61024;-67
2024/01/24 09:36:43;;;;;;;88.50;38.30;;;;;;;8.24;57.68;100499.52;108070;1255;62240;-67
2024/01/24 09:39:11;;;;;;;96.70;41.70;;;;;;;8.34;57.55;100490.92;108070;1255;74003;-66
2024/01/24 09:41:41;;;;;;;82.20;35.10;;;;;;;8.31;57.58;100489.94;108085;1255;70893;-67
2024/01/24 09:44:09;;;;;;;93.60;39.70;;;;;;;8.09;58.03;100486.56;108096;1254;72941;-67
2024/01/24 09:46:42;;;;;;;90.90;41.90;;;;;;;8.23;57.62;100483.27;107980;1259;59657;-66
2024/01/24 09:49:10;;;;;;;79.30;32.10;;;;;;;8.22;57.78;100472.98;108156;1260;61446;-66
2024/01/24 09:51:38;;;;;;;90.40;38.90;;;;;;;8.18;57.92;100468.52;108187;1254;73980;-66
2024/01/24 09:54:06;;;;;;;88.10;37.90;;;;;;;8.21;57.76;100459.55;108027;1255;72653;-66
2024/01/24 09:56:35;;;;;;;79.60;32.00;;;;;;;8.31;57.71;100451.11;108105;1254;71449;-66
2024/01/24 09:59:03;;;;;;;90.20;38.90;;;;;;;8.15;58.07;100454.95;108212;1256;62909;-66
2024/01/24 10:01:33;;;;;;;87.50;35.90;;;;;;;7.80;58.93;100451.66;108191;1254;59510;-67
2024/01/24 10:04:01;;;;;;;77.50;32.50;;;;;;;7.99;58.66;100449.02;108133;1256;74099;-67
2024/01/24 10:06:29;;;;;;;87.50;34.90;;;;;;;7.99;58.69;100445.33;108055;1258;72871;-67
2024/01/24 10:08:57;;;;;;;92.50;38.50;;;;;;;7.59;60.00;100439.86;108047;1254;72793;-67
2024/01/24 10:11:25;;;;;;;98.00;40.40;;;;;;;7.94;59.15;100438.44;108020;1254;61040;-67
2024/01/24 10:13:59;;;;;;;78.30;35.30;;;;;;;7.95;59.12;100434.57;108129;1254;60264;-67
2024/01/24 10:16:27;;;;;;;90.30;37.90;;;;;;;7.86;59.39;100426.73;108166;1256;73242;-67
2024/01/24 10:18:55;;;;;;;98.00;38.80;;;;;;;7.98;59.11;100418.44;108112;1254;70735;-67
2024/01/24 10:21:25;;;;;;;85.30;36.60;;;;;;;8.04;59.03;100407.10;108062;1254;71433;-66
2024/01/24 10:23:55;;;;;;;103.50;41.80;;;;;;;8.06;58.74;100411.79;108005;1258;61800;-67
2024/01/24 10:26:22;;;;;;;90.00;36.30;;;;;;;8.30;58.20;100407.39;108157;1254;60286;-67
2024/01/24 10:28:50;;;;;;;88.60;37.90;;;;;;;8.18;58.39;100405.92;108019;1254;74604;-67
2024/01/24 10:31:21;;;;;;;90.50;35.20;;;;;;;8.32;58.00;100397.38;108004;1259;72796;-67
2024/01/24 10:33:53;;;;;;;91.00;36.50;;;;;;;8.20;58.23;100395.21;108122;1254;72954;-71
2024/01/24 10:36:21;;;;;;;100.80;41.00;;;;;;;8.14;58.46;100391.48;108076;1257;61803;-68
2024/01/24 10:38:59;;;;;;;91.40;39.70;;;;;;;8.29;58.15;100382.05;108035;1254;60309;-68
2024/01/24 10:41:30;;;;;;;90.70;35.20;;;;;;;8.19;58.36;100372.48;108038;1257;74784;-67
2024/01/24 10:44:04;;;;;;;106.00;42.80;;;;;;;8.11;58.56;100367.27;108154;1254;70599;-67
2024/01/24 10:46:33;;;;;;;89.60;38.10;;;;;;;8.27;58.16;100368.80;108136;1254;72698;-66
2024/01/24 10:49:01;;;;;;;86.60;35.00;;;;;;;8.13;58.50;100361.59;108073;1252;60370;-68
2024/01/24 10:51:29;;;;;;;102.00;37.80;;;;;;;8.37;58.01;100351.25;108171;1252;60690;-67
2024/01/24 10:53:57;;;;;;;84.10;35.40;;;;;;;8.40;57.89;100341.05;108042;1254;72778;-67
2024/01/24 10:56:25;;;;;;;90.70;34.10;;;;;;;8.30;58.24;100336.36;108094;1254;70934;-68
2024/01/24 10:58:53;;;;;;;96.90;39.20;;;;;;;8.39;58.19;100339.67;108083;1254;72694;-68
2024/01/24 11:01:21;;;;;;;81.00;36.50;;;;;;;8.35;58.22;100336.07;108070;1254;60753;-67
2024/01/24 11:03:48;;;;;;;92.30;38.40;;;;;;;8.27;58.19;100324.73;108083;1255;60286;-67
2024/01/24 11:06:18;;;;;;;78.20;28.10;;;;;;;8.43;57.97;100316.11;108034;1259;72638;-67
2024/01/24 11:08:51;;;;;;;94.80;39.30;;;;;;;8.30;58.42;100311.02;108011;1254;70463;-67
2024/01/24 11:11:20;;;;;;;97.40;37.80;;;;;;;8.62;57.74;100299.73;108085;1254;71934;-67
2024/01/24 11:13:48;;;;;;;88.20;35.20;;;;;;;8.91;56.99;100294.05;108089;1254;60545;-67
2024/01/24 11:16:25;;;;;;;89.80;39.40;;;;;;;8.84;56.70;100286.02;108111;1254;60265;-66